Time;durP1;ratioP1;P1;durP2;ratioP2;P2;SDS_P1;SDS_P2;PMS_P1;PMS_P2;Temp;Humidity;BMP_temperature;BMP_pressure;BME280_temperature;BME280_humidity;BME280_pressure;Samples;Min_cycle;Max_cycle;Signal;HPM_P1;HPM_P2
2020/12/14 00:00:06;;;;;;;11.30;6.73;;;1.10;99.90;;;;;;5133006;27;20181;-63
2020/12/14 00:02:33;;;;;;;10.43;6.23;;;1.10;99.90;;;;;;5133007;27;20193;-62
2020/12/14 00:04:59;;;;;;;11.53;7.13;;;1.10;99.90;;;;;;5133609;27;20273;-62
2020/12/14 00:07:26;;;;;;;14.57;7.27;;;1.10;99.90;;;;;;5133957;27;20668;-62
2020/12/14 00:09:53;;;;;;;10.70;6.37;;;1.10;99.90;;;;;;5133576;27;20225;-61
2020/12/14 00:12:19;;;;;;;11.10;6.77;;;1.10;99.90;;;;;;5133257;27;20705;-62
2020/12/14 00:14:46;;;;;;;11.23;6.83;;;1.10;99.90;;;;;;5133242;27;20240;-62
2020/12/14 00:17:16;;;;;;;11.87;6.57;;;1.10;99.90;;;;;;5131656;27;20300;-62
2020/12/14 00:19:43;;;;;;;11.77;6.50;;;1.10;99.90;;;;;;5133072;27;20216;-61
2020/12/14 00:22:09;;;;;;;11.53;6.57;;;1.10;99.90;;;;;;5133153;27;20239;-62
2020/12/14 00:24:35;;;;;;;10.33;6.17;;;1.10;99.90;;;;;;5132981;27;20224;-61
2020/12/14 00:27:03;;;;;;;10.47;6.37;;;1.10;99.90;;;;;;5133144;27;20224;-63
2020/12/14 00:29:30;;;;;;;11.53;6.50;;;1.10;99.90;;;;;;5132422;27;20228;-62
2020/12/14 00:31:56;;;;;;;11.30;6.73;;;1.10;99.90;;;;;;5131849;27;20210;-62
2020/12/14 00:34:24;;;;;;;11.53;6.17;;;1.10;99.90;;;;;;5133116;27;20224;-61
2020/12/14 00:36:51;;;;;;;11.70;6.50;;;1.10;99.90;;;;;;5133154;27;20224;-61
2020/12/14 00:39:18;;;;;;;11.30;6.23;;;1.10;99.90;;;;;;5132968;27;20224;-63
2020/12/14 00:41:44;;;;;;;10.07;6.03;;;1.10;99.90;;;;;;5132679;27;20280;-64
2020/12/14 00:44:11;;;;;;;7.90;5.13;;;1.10;99.90;;;;;;5132488;27;20255;-62
2020/12/14 00:46:38;;;;;;;9.40;5.37;;;1.00;99.90;;;;;;5131807;27;20251;-61
2020/12/14 00:49:04;;;;;;;11.07;5.57;;;1.10;99.90;;;;;;5132164;27;20709;-61
2020/12/14 00:51:31;;;;;;;10.53;5.60;;;1.10;99.90;;;;;;5131934;27;20227;-62
2020/12/14 00:53:58;;;;;;;10.87;5.70;;;1.00;99.90;;;;;;5132838;27;20224;-61
2020/12/14 00:56:25;;;;;;;9.57;5.47;;;1.00;99.90;;;;;;5132580;27;20201;-61
2020/12/14 00:58:52;;;;;;;9.07;5.77;;;1.00;99.90;;;;;;5132798;28;20232;-61
2020/12/14 01:01:19;;;;;;;10.70;5.50;;;0.90;99.90;;;;;;5131685;28;20725;-62
2020/12/14 01:03:46;;;;;;;9.70;5.80;;;0.90;99.90;;;;;;5132247;28;20653;-61
2020/12/14 01:06:12;;;;;;;9.20;5.87;;;0.90;99.90;;;;;;5132003;28;20248;-62
2020/12/14 01:08:41;;;;;;;9.63;5.83;;;0.90;99.90;;;;;;5132574;28;20265;-60
2020/12/14 01:11:08;;;;;;;9.27;5.73;;;0.90;99.90;;;;;;5132354;28;20177;-62
2020/12/14 01:13:34;;;;;;;12.70;5.80;;;0.90;99.90;;;;;;5132504;28;20602;-61
2020/12/14 01:16:00;;;;;;;9.80;5.87;;;0.90;99.90;;;;;;5130953;28;20233;-63
2020/12/14 01:18:28;;;;;;;10.93;6.20;;;0.90;99.90;;;;;;5132719;28;20280;-62
2020/12/14 01:20:54;;;;;;;14.30;6.03;;;0.90;99.90;;;;;;5132306;28;20261;-62
2020/12/14 01:23:21;;;;;;;11.03;6.00;;;0.90;99.90;;;;;;5132268;28;20355;-61
2020/12/14 01:25:47;;;;;;;12.47;6.80;;;1.00;99.90;;;;;;5131982;28;20772;-60
2020/12/14 01:28:14;;;;;;;11.17;6.93;;;0.90;99.90;;;;;;5133834;27;20208;-61
2020/12/14 01:30:40;;;;;;;11.93;6.47;;;0.90;99.90;;;;;;5135460;27;20300;-63
2020/12/14 01:33:06;;;;;;;10.27;5.97;;;0.90;99.90;;;;;;5136560;27;20261;-60
2020/12/14 01:35:34;;;;;;;10.67;6.03;;;0.80;99.90;;;;;;5136699;27;20231;-63
2020/12/14 01:38:00;;;;;;;11.10;6.13;;;0.90;99.90;;;;;;5136173;27;20208;-61
2020/12/14 01:40:27;;;;;;;11.03;6.37;;;0.90;99.90;;;;;;5135753;27;20495;-63
2020/12/14 01:42:53;;;;;;;11.53;6.20;;;0.90;99.90;;;;;;5136543;27;20340;-63
2020/12/14 01:45:20;;;;;;;11.53;6.17;;;0.80;99.90;;;;;;5135027;27;20248;-63
2020/12/14 01:47:49;;;;;;;9.10;5.97;;;0.90;99.90;;;;;;5135950;27;20201;-63
2020/12/14 01:50:16;;;;;;;11.87;6.00;;;0.90;99.90;;;;;;5115870;28;20582;-63
2020/12/14 01:52:45;;;;;;;10.77;6.33;;;0.80;99.90;;;;;;5115393;28;20198;-63
2020/12/14 01:55:14;;;;;;;9.63;5.80;;;0.90;99.90;;;;;;5115530;28;20202;-63
2020/12/14 01:57:41;;;;;;;10.97;5.90;;;0.90;99.90;;;;;;5115564;28;20198;-63
2020/12/14 02:00:09;;;;;;;10.40;6.03;;;0.80;99.90;;;;;;5131560;27;20268;-61
2020/12/14 02:02:36;;;;;;;12.23;6.20;;;0.90;99.90;;;;;;5135566;27;20232;-63
2020/12/14 02:05:04;;;;;;;11.10;6.40;;;0.90;99.90;;;;;;5136032;27;20248;-64
2020/12/14 02:07:30;;;;;;;12.57;6.23;;;0.90;99.90;;;;;;5135437;27;20731;-62
2020/12/14 02:09:57;;;;;;;9.70;5.43;;;0.90;99.90;;;;;;5135814;27;20212;-63
2020/12/14 02:12:26;;;;;;;11.07;6.20;;;1.00;99.90;;;;;;5135791;27;20231;-60
2020/12/14 02:14:54;;;;;;;11.13;6.33;;;0.90;99.90;;;;;;5132981;27;20602;-62
2020/12/14 02:17:21;;;;;;;9.40;5.43;;;0.90;99.90;;;;;;5135084;27;20667;-63
2020/12/14 02:19:49;;;;;;;8.77;5.47;;;0.90;99.90;;;;;;5135236;27;20343;-63
2020/12/14 02:22:18;;;;;;;8.60;5.13;;;1.00;99.90;;;;;;5134546;27;20216;-62
2020/12/14 02:24:52;;;;;;;9.13;5.67;;;1.00;99.90;;;;;;5134889;27;20232;-62
2020/12/14 02:27:19;;;;;;;9.10;5.60;;;1.00;99.90;;;;;;5135739;27;20227;-62
2020/12/14 02:29:47;;;;;;;10.17;5.37;;;1.00;99.90;;;;;;5135698;27;20227;-62
2020/12/14 02:32:15;;;;;;;9.23;5.67;;;1.00;99.90;;;;;;5135036;27;20352;-63
2020/12/14 02:34:42;;;;;;;9.20;5.73;;;1.00;99.90;;;;;;5133862;27;20713;-63
2020/12/14 02:37:10;;;;;;;8.63;5.47;;;1.00;99.90;;;;;;5135375;27;20618;-62
2020/12/14 02:39:37;;;;;;;11.00;5.83;;;1.00;99.90;;;;;;5133980;27;20224;-61
2020/12/14 02:42:09;;;;;;;9.10;5.17;;;1.00;99.90;;;;;;5135233;27;20181;-61
2020/12/14 02:44:35;;;;;;;9.20;4.83;;;1.00;99.90;;;;;;5134831;27;20577;-63
2020/12/14 02:47:02;;;;;;;9.80;4.63;;;1.00;99.90;;;;;;5134938;27;20350;-62
2020/12/14 02:49:29;;;;;;;8.07;5.20;;;1.10;99.90;;;;;;5133717;27;20716;-60
2020/12/14 02:51:55;;;;;;;8.93;5.07;;;1.00;99.90;;;;;;5135052;27;20233;-61
2020/12/14 02:54:22;;;;;;;10.13;5.10;;;1.00;99.90;;;;;;5134849;27;20311;-62
2020/12/14 02:56:48;;;;;;;9.53;5.33;;;1.00;99.90;;;;;;5134039;27;20247;-64
2020/12/14 02:59:17;;;;;;;9.20;5.40;;;1.10;99.90;;;;;;5134678;27;20300;-61
2020/12/14 03:01:44;;;;;;;10.40;5.57;;;1.10;99.90;;;;;;5134494;27;20220;-60
2020/12/14 03:04:10;;;;;;;10.93;5.60;;;1.10;99.90;;;;;;5134467;27;20236;-63
2020/12/14 03:06:37;;;;;;;10.23;5.60;;;1.10;99.90;;;;;;5134187;27;20213;-61
2020/12/14 03:09:04;;;;;;;10.20;5.60;;;1.10;99.90;;;;;;5133760;27;20626;-62
2020/12/14 03:11:31;;;;;;;10.37;5.50;;;1.10;99.90;;;;;;5133256;27;20213;-61
2020/12/14 03:13:57;;;;;;;8.90;5.33;;;1.10;99.90;;;;;;5134126;27;20192;-65
2020/12/14 03:16:25;;;;;;;10.57;6.00;;;1.10;99.90;;;;;;5134131;27;20212;-62
2020/12/14 03:18:51;;;;;;;9.50;5.57;;;1.10;99.90;;;;;;5133996;27;20646;-62
2020/12/14 03:21:18;;;;;;;8.37;5.10;;;1.10;99.90;;;;;;5133437;27;20605;-65
2020/12/14 03:23:44;;;;;;;11.63;5.53;;;1.10;99.90;;;;;;5133828;27;20247;-63
2020/12/14 03:26:15;;;;;;;8.60;5.07;;;1.20;99.90;;;;;;5133784;27;20270;-63
2020/12/14 03:28:41;;;;;;;10.97;5.70;;;1.20;99.90;;;;;;5133950;27;20196;-61
2020/12/14 03:31:08;;;;;;;7.93;5.23;;;1.20;99.90;;;;;;5134243;27;20222;-62
2020/12/14 03:33:36;;;;;;;8.33;5.53;;;1.20;99.90;;;;;;5134225;27;20193;-62
2020/12/14 03:36:03;;;;;;;9.80;5.33;;;1.10;99.90;;;;;;5132607;27;20217;-63
2020/12/14 03:38:30;;;;;;;10.50;5.63;;;1.20;99.90;;;;;;5133566;27;20216;-63
2020/12/14 03:40:56;;;;;;;11.23;5.70;;;1.20;99.90;;;;;;5133416;27;20274;-61
2020/12/14 03:43:22;;;;;;;10.73;6.23;;;1.20;99.90;;;;;;5134056;27;20256;-63
2020/12/14 03:45:49;;;;;;;9.63;5.10;;;1.20;99.90;;;;;;5133286;27;20273;-63
2020/12/14 03:48:16;;;;;;;9.73;5.27;;;1.30;99.90;;;;;;5133183;27;20231;-62
2020/12/14 03:50:46;;;;;;;9.10;5.27;;;1.20;99.90;;;;;;5132259;27;20192;-63
2020/12/14 03:53:13;;;;;;;8.70;5.07;;;1.20;99.90;;;;;;5133214;27;20224;-61
2020/12/14 03:55:40;;;;;;;7.97;5.00;;;1.20;99.90;;;;;;5132861;27;20201;-60
2020/12/14 03:58:07;;;;;;;10.47;5.53;;;1.20;99.90;;;;;;5133288;27;20193;-62
2020/12/14 04:00:34;;;;;;;12.80;5.73;;;1.20;99.90;;;;;;5133177;27;20217;-63
2020/12/14 04:03:03;;;;;;;11.53;5.23;;;1.20;99.90;;;;;;5133303;27;20289;-61
2020/12/14 04:05:30;;;;;;;8.97;5.33;;;1.20;99.90;;;;;;5131933;27;20686;-61
2020/12/14 04:07:57;;;;;;;9.23;5.60;;;1.30;99.90;;;;;;5133160;27;20193;-64
2020/12/14 04:10:24;;;;;;;10.30;5.63;;;1.30;99.90;;;;;;5132676;27;20653;-62
2020/12/14 04:12:50;;;;;;;8.87;5.43;;;1.30;99.90;;;;;;5133091;27;20235;-61
2020/12/14 04:15:17;;;;;;;9.20;5.40;;;1.30;99.90;;;;;;5132459;27;20237;-62
2020/12/14 04:17:43;;;;;;;9.40;5.57;;;1.30;99.90;;;;;;5132901;27;20579;-62
2020/12/14 04:20:10;;;;;;;12.73;5.63;;;1.30;99.90;;;;;;5130969;27;20224;-62
2020/12/14 04:22:36;;;;;;;10.93;5.70;;;1.30;99.90;;;;;;5132727;27;20238;-62
2020/12/14 04:25:04;;;;;;;10.13;6.10;;;1.30;99.90;;;;;;5132351;27;20239;-63
2020/12/14 04:27:30;;;;;;;11.03;5.80;;;1.30;99.90;;;;;;5132650;27;20224;-62
2020/12/14 04:29:57;;;;;;;9.07;5.57;;;1.20;99.90;;;;;;5132580;27;20672;-63
2020/12/14 04:32:23;;;;;;;9.83;6.00;;;1.20;99.90;;;;;;5132667;27;20243;-61
2020/12/14 04:34:49;;;;;;;9.53;5.40;;;1.20;99.90;;;;;;5131923;27;20611;-61
2020/12/14 04:37:16;;;;;;;9.40;5.67;;;1.20;99.90;;;;;;5132906;27;20224;-61
2020/12/14 04:39:42;;;;;;;8.57;5.33;;;1.20;99.90;;;;;;5131902;27;20192;-63
2020/12/14 04:42:10;;;;;;;11.30;5.93;;;1.20;99.90;;;;;;5132830;27;20193;-63
2020/12/14 04:44:38;;;;;;;9.83;5.47;;;1.20;99.90;;;;;;5132743;27;20188;-64
2020/12/14 04:47:05;;;;;;;10.63;5.67;;;1.20;99.90;;;;;;5132631;27;20213;-61
2020/12/14 04:49:33;;;;;;;9.87;5.60;;;1.10;99.90;;;;;;5131225;27;20584;-61
2020/12/14 04:52:01;;;;;;;12.10;5.93;;;1.10;99.90;;;;;;5132399;27;20293;-62
2020/12/14 04:54:29;;;;;;;10.03;5.43;;;1.20;99.90;;;;;;5132607;27;20224;-62
2020/12/14 04:57:04;;;;;;;11.60;5.83;;;1.20;99.90;;;;;;5132952;27;20220;-61
2020/12/14 04:59:31;;;;;;;10.43;5.80;;;1.20;99.90;;;;;;5132775;27;20211;-61
2020/12/14 05:02:04;;;;;;;10.43;5.80;;;1.20;99.90;;;;;;5132627;27;20177;-63
2020/12/14 05:04:30;;;;;;;10.33;5.37;;;1.20;99.90;;;;;;5130769;28;20381;-63
2020/12/14 05:06:57;;;;;;;10.60;5.93;;;1.10;99.90;;;;;;5132281;28;20263;-62
2020/12/14 05:09:23;;;;;;;10.03;5.53;;;1.10;99.90;;;;;;5132224;28;20189;-60
2020/12/14 05:11:50;;;;;;;11.37;5.97;;;1.10;99.90;;;;;;5132255;28;20238;-61
2020/12/14 05:14:17;;;;;;;13.03;5.87;;;1.10;99.90;;;;;;5130327;28;20309;-63
2020/12/14 05:16:45;;;;;;;11.77;5.70;;;1.10;99.90;;;;;;5132008;28;20200;-62
2020/12/14 05:19:22;;;;;;;13.63;6.07;;;1.10;99.90;;;;;;5132593;28;20220;-60
2020/12/14 05:21:50;;;;;;;9.70;5.50;;;1.20;99.90;;;;;;5131952;28;20216;-64
2020/12/14 05:24:25;;;;;;;11.90;5.53;;;1.20;99.90;;;;;;5130931;28;20236;-62
2020/12/14 05:26:52;;;;;;;13.30;6.07;;;1.20;99.90;;;;;;5132361;28;20592;-62
2020/12/14 05:29:26;;;;;;;10.53;6.07;;;1.20;99.90;;;;;;5132707;28;20228;-62
2020/12/14 05:32:01;;;;;;;8.53;5.27;;;1.10;99.90;;;;;;5131873;28;20249;-66
2020/12/14 05:34:31;;;;;;;9.70;5.37;;;1.10;99.90;;;;;;5132462;28;20223;-63
2020/12/14 05:36:58;;;;;;;12.70;5.70;;;1.20;99.90;;;;;;5132085;28;20197;-63
2020/12/14 05:39:26;;;;;;;14.97;5.87;;;1.20;99.90;;;;;;5130908;28;20669;-65
2020/12/14 05:41:52;;;;;;;10.27;5.53;;;1.10;99.90;;;;;;5131946;28;20648;-62
2020/12/14 05:44:27;;;;;;;11.00;5.70;;;1.20;99.90;;;;;;5132360;28;20302;-61
2020/12/14 05:46:54;;;;;;;13.60;5.40;;;1.20;99.90;;;;;;5131881;28;20572;-63
2020/12/14 05:49:21;;;;;;;13.70;5.77;;;1.20;99.90;;;;;;5131940;28;20557;-62
2020/12/14 05:51:48;;;;;;;10.63;5.50;;;1.10;99.90;;;;;;5131999;28;20262;-64
2020/12/14 05:54:24;;;;;;;10.13;5.77;;;1.20;99.90;;;;;;5131156;28;21559;-63
2020/12/14 05:56:54;;;;;;;12.37;5.67;;;1.20;99.90;;;;;;5132633;28;20185;-64
2020/12/14 05:59:21;;;;;;;10.10;4.97;;;1.20;99.90;;;;;;5131608;28;20185;-61
2020/12/14 06:01:49;;;;;;;13.40;5.77;;;1.20;99.90;;;;;;5132158;28;20182;-61
2020/12/14 06:04:17;;;;;;;10.90;5.97;;;1.20;99.90;;;;;;5131905;28;20621;-63
2020/12/14 06:06:47;;;;;;;10.63;5.43;;;1.20;99.90;;;;;;5131840;28;20661;-62
2020/12/14 06:09:21;;;;;;;10.40;5.60;;;1.20;99.90;;;;;;5130042;28;20187;-63
2020/12/14 06:11:52;;;;;;;8.47;5.47;;;1.10;99.90;;;;;;5132198;28;20183;-63
2020/12/14 06:14:21;;;;;;;10.00;5.53;;;1.10;99.90;;;;;;5132690;27;20189;-62
2020/12/14 06:16:47;;;;;;;9.13;5.13;;;1.10;99.90;;;;;;5135288;27;20201;-63
2020/12/14 06:19:14;;;;;;;9.20;5.63;;;1.10;99.90;;;;;;5115097;28;20248;-61
2020/12/14 06:21:47;;;;;;;9.63;5.53;;;1.10;99.90;;;;;;5115110;28;20567;-66
2020/12/14 06:24:20;;;;;;;11.83;5.73;;;1.00;99.90;;;;;;5130076;27;20219;-64
2020/12/14 06:26:48;;;;;;;10.37;5.87;;;1.10;99.90;;;;;;5135441;27;20236;-63
2020/12/14 06:29:31;;;;;;;11.70;5.70;;;1.00;99.90;;;;;;5135576;27;20696;-63
2020/12/14 06:31:58;;;;;;;10.80;5.80;;;1.00;99.90;;;;;;5134803;27;20185;-61
2020/12/14 06:34:41;;;;;;;10.67;5.77;;;1.00;99.90;;;;;;5135922;27;20225;-63
2020/12/14 06:37:08;;;;;;;10.53;5.60;;;1.00;99.90;;;;;;5135550;27;20726;-63
2020/12/14 06:39:37;;;;;;;10.10;6.03;;;1.00;99.90;;;;;;5134833;27;20224;-64
2020/12/14 06:42:23;;;;;;;12.47;5.93;;;1.10;99.90;;;;;;5135393;27;20192;-63
2020/12/14 06:45:09;;;;;;;12.10;6.23;;;1.20;99.90;;;;;;5135350;27;20630;-63
2020/12/14 06:47:52;;;;;;;12.73;6.10;;;1.30;99.90;;;;;;5135212;27;20293;-64
2020/12/14 06:50:31;;;;;;;13.20;6.73;;;1.30;99.90;;;;;;5135558;27;20232;-65
2020/12/14 06:53:00;;;;;;;10.73;6.10;;;1.40;99.90;;;;;;5134580;27;20215;-63
2020/12/14 06:55:43;;;;;;;10.83;6.27;;;1.40;99.90;;;;;;5134868;27;20224;-62
2020/12/14 06:58:20;;;;;;;16.67;6.07;;;1.50;99.90;;;;;;5134719;27;20292;-64
2020/12/14 07:00:46;;;;;;;10.73;5.73;;;1.40;99.90;;;;;;5134832;27;20176;-63
2020/12/14 07:03:29;;;;;;;12.63;6.30;;;1.30;99.90;;;;;;5135279;27;20224;-63
2020/12/14 07:06:00;;;;;;;16.97;6.40;;;1.30;99.90;;;;;;5134748;27;20205;-63
2020/12/14 07:08:38;;;;;;;12.00;6.50;;;1.30;99.90;;;;;;5134032;27;20189;-63
2020/12/14 07:11:16;;;;;;;14.43;6.50;;;1.30;99.90;;;;;;5133061;27;20184;-61
2020/12/14 07:13:43;;;;;;;11.27;6.33;;;1.30;99.90;;;;;;5133144;27;20689;-62
2020/12/14 07:16:11;;;;;;;13.17;6.60;;;1.30;99.90;;;;;;5134137;27;20239;-61
2020/12/14 07:18:38;;;;;;;11.53;6.13;;;1.30;99.90;;;;;;5134397;27;20246;-65
2020/12/14 07:21:11;;;;;;;10.90;6.67;;;1.30;99.90;;;;;;5134984;27;20181;-62
2020/12/14 07:23:39;;;;;;;11.43;5.97;;;1.30;99.90;;;;;;5134913;27;20498;-63
2020/12/14 07:26:06;;;;;;;9.43;5.80;;;1.20;99.90;;;;;;5133778;27;20269;-63
2020/12/14 07:28:44;;;;;;;11.80;6.27;;;1.30;99.90;;;;;;5133027;27;20246;-62
2020/12/14 07:31:13;;;;;;;11.87;6.43;;;1.30;99.90;;;;;;5134781;27;20602;-62
2020/12/14 07:33:40;;;;;;;11.37;6.70;;;1.30;99.90;;;;;;5134306;27;20235;-63
2020/12/14 07:36:10;;;;;;;9.43;5.70;;;1.20;99.90;;;;;;5132979;27;20196;-62
2020/12/14 07:38:48;;;;;;;12.57;6.33;;;1.20;99.90;;;;;;5133452;27;20268;-63
2020/12/14 07:41:14;;;;;;;13.87;6.57;;;1.20;99.90;;;;;;5133809;27;20305;-64
2020/12/14 07:43:46;;;;;;;12.70;6.43;;;1.10;99.90;;;;;;5134246;27;20224;-66
2020/12/14 07:46:27;;;;;;;14.73;6.50;;;1.20;99.90;;;;;;5134112;27;20320;-63
2020/12/14 07:48:59;;;;;;;10.27;6.27;;;1.10;99.90;;;;;;5134584;27;20256;-62
2020/12/14 07:51:26;;;;;;;13.37;6.83;;;1.10;99.90;;;;;;5132306;27;20269;-64
2020/12/14 07:54:09;;;;;;;13.33;6.73;;;1.20;99.90;;;;;;5134228;27;20221;-64
2020/12/14 07:56:49;;;;;;;13.10;6.83;;;1.20;99.90;;;;;;5134405;27;20209;-60
2020/12/14 07:59:21;;;;;;;11.10;6.73;;;1.20;99.90;;;;;;5113322;28;20224;-62
2020/12/14 08:01:49;;;;;;;12.63;6.60;;;1.30;99.90;;;;;;5131405;27;20215;-62
2020/12/14 08:04:26;;;;;;;10.60;6.40;;;1.30;99.90;;;;;;5133732;27;20225;-63
2020/12/14 08:06:53;;;;;;;12.33;7.03;;;1.30;99.90;;;;;;5133451;27;20201;-62
2020/12/14 08:09:23;;;;;;;10.17;6.07;;;1.30;99.90;;;;;;5133437;27;20262;-61
2020/12/14 08:11:51;;;;;;;15.87;6.80;;;1.30;99.90;;;;;;5132507;27;20224;-63
2020/12/14 08:14:18;;;;;;;12.77;6.50;;;1.30;99.90;;;;;;5133727;27;20232;-62
2020/12/14 08:16:45;;;;;;;13.77;7.17;;;1.40;99.90;;;;;;5131189;27;20231;-63
2020/12/14 08:19:19;;;;;;;12.70;6.40;;;1.30;99.90;;;;;;5133488;27;20224;-63
2020/12/14 08:22:07;;;;;;;14.07;7.00;;;1.30;99.90;;;;;;5133380;27;20253;-64
2020/12/14 08:24:35;;;;;;;12.03;6.97;;;1.40;99.90;;;;;;5133929;27;20207;-62
2020/12/14 08:27:04;;;;;;;15.10;7.90;;;1.40;99.90;;;;;;5133520;27;20248;-62
2020/12/14 08:29:32;;;;;;;12.10;6.50;;;1.40;99.90;;;;;;5132431;27;20197;-63
2020/12/14 08:32:00;;;;;;;12.93;6.87;;;1.40;99.90;;;;;;5133209;27;20189;-61
2020/12/14 08:34:34;;;;;;;11.77;6.90;;;1.50;99.90;;;;;;5133137;27;20188;-65
2020/12/14 08:37:01;;;;;;;16.70;7.10;;;1.50;99.90;;;;;;5133387;27;20221;-62
2020/12/14 08:39:27;;;;;;;14.13;7.10;;;1.60;99.90;;;;;;5132449;27;20653;-63
2020/12/14 08:42:10;;;;;;;17.17;7.97;;;1.60;99.90;;;;;;5133693;27;20292;-63
2020/12/14 08:44:38;;;;;;;16.60;8.20;;;1.70;99.90;;;;;;5132227;27;20228;-64
2020/12/14 08:47:14;;;;;;;13.30;7.10;;;1.60;99.90;;;;;;5132080;27;20371;-65
2020/12/14 08:49:40;;;;;;;13.00;7.30;;;1.70;99.90;;;;;;5133076;27;20260;-63
2020/12/14 08:52:07;;;;;;;12.83;7.27;;;1.70;99.90;;;;;;5132742;27;20228;-64
2020/12/14 08:54:33;;;;;;;11.53;6.50;;;1.70;99.90;;;;;;5132208;27;20225;-64
2020/12/14 08:57:00;;;;;;;10.53;6.27;;;1.70;99.90;;;;;;5132185;27;20228;-61
2020/12/14 08:59:27;;;;;;;9.83;6.07;;;1.70;99.90;;;;;;5131908;27;20283;-63
2020/12/14 09:02:00;;;;;;;10.87;7.00;;;1.70;99.90;;;;;;5133403;28;20219;-61
2020/12/14 09:04:27;;;;;;;12.50;6.87;;;1.80;99.90;;;;;;5132000;28;20226;-63
2020/12/14 09:06:54;;;;;;;11.43;6.23;;;1.80;99.90;;;;;;5132329;28;20673;-63
2020/12/14 09:09:29;;;;;;;11.43;6.70;;;1.80;99.90;;;;;;5131975;28;20653;-63
2020/12/14 09:11:56;;;;;;;12.67;6.53;;;1.80;99.90;;;;;;5131400;28;20275;-63
2020/12/14 09:14:24;;;;;;;12.00;6.70;;;1.80;99.90;;;;;;5132876;28;20611;-62
2020/12/14 09:16:54;;;;;;;12.10;7.07;;;1.80;99.90;;;;;;5130170;28;20189;-61
2020/12/14 09:19:22;;;;;;;13.07;7.20;;;1.80;99.90;;;;;;5124924;28;20613;-65
2020/12/14 09:21:48;;;;;;;13.67;7.10;;;1.80;99.90;;;;;;5133292;28;20229;-64
2020/12/14 09:24:17;;;;;;;18.10;7.13;;;1.90;99.90;;;;;;5131644;28;20189;-61
2020/12/14 09:26:45;;;;;;;13.07;6.90;;;1.90;99.90;;;;;;5126716;28;20277;-64
2020/12/14 09:29:12;;;;;;;15.17;7.70;;;1.90;99.90;;;;;;5131150;28;20624;-62
2020/12/14 09:31:40;;;;;;;16.23;7.67;;;2.00;99.90;;;;;;5125508;28;20188;-65
2020/12/14 09:34:07;;;;;;;15.33;7.17;;;2.00;99.90;;;;;;5128824;28;20208;-61
2020/12/14 09:36:34;;;;;;;14.17;7.23;;;2.10;99.90;;;;;;5131679;28;20193;-63
2020/12/14 09:39:01;;;;;;;12.60;6.70;;;2.10;99.90;;;;;;5130948;28;20264;-63
2020/12/14 09:41:31;;;;;;;11.70;7.20;;;2.20;99.90;;;;;;5131658;28;20717;-63
2020/12/14 09:43:58;;;;;;;13.13;6.97;;;2.20;99.90;;;;;;5132103;28;20189;-62
2020/12/14 09:46:26;;;;;;;16.00;7.57;;;2.20;99.90;;;;;;5130263;28;20212;-62
2020/12/14 09:48:53;;;;;;;12.20;7.10;;;2.20;99.90;;;;;;5131508;27;20231;-64
2020/12/14 09:51:20;;;;;;;13.50;7.03;;;2.20;99.90;;;;;;5133476;27;20332;-64
2020/12/14 09:53:47;;;;;;;13.90;7.03;;;2.20;99.90;;;;;;5134814;27;20268;-64
2020/12/14 09:56:13;;;;;;;16.93;7.23;;;2.20;99.90;;;;;;5134293;27;20610;-63
2020/12/14 09:58:40;;;;;;;14.97;6.60;;;2.20;99.90;;;;;;5135391;27;20220;-63
2020/12/14 10:01:07;;;;;;;13.47;7.30;;;2.30;99.90;;;;;;5134193;27;20212;-64
2020/12/14 10:03:34;;;;;;;13.57;6.97;;;2.30;99.90;;;;;;5134818;27;20541;-62
2020/12/14 10:06:00;;;;;;;12.43;6.53;;;2.40;99.90;;;;;;5131978;27;20256;-64
2020/12/14 10:08:27;;;;;;;13.47;7.00;;;2.30;99.90;;;;;;5131025;27;20216;-63
2020/12/14 10:10:56;;;;;;;12.80;6.40;;;2.30;99.90;;;;;;5136015;27;20182;-63
2020/12/14 10:13:22;;;;;;;13.80;7.13;;;2.30;99.90;;;;;;5135842;27;20192;-63
2020/12/14 10:15:49;;;;;;;14.57;7.17;;;2.40;99.90;;;;;;5135430;27;20226;-64
2020/12/14 10:18:16;;;;;;;15.00;7.27;;;2.30;99.90;;;;;;5134673;27;20306;-62
2020/12/14 10:20:42;;;;;;;12.63;6.93;;;2.30;99.90;;;;;;5134045;27;20659;-62
2020/12/14 10:23:09;;;;;;;12.33;7.13;;;2.40;99.90;;;;;;5117999;27;20239;-62
2020/12/14 10:25:37;;;;;;;11.53;6.73;;;2.40;99.90;;;;;;5119863;27;20242;-61
2020/12/14 10:28:04;;;;;;;12.03;6.67;;;2.40;99.90;;;;;;5134467;27;20221;-64
2020/12/14 10:30:30;;;;;;;11.30;6.47;;;2.50;99.90;;;;;;5127007;27;20749;-62
2020/12/14 10:32:57;;;;;;;15.27;6.80;;;2.50;99.90;;;;;;5133770;27;20236;-63
2020/12/14 10:35:23;;;;;;;12.17;6.47;;;2.50;99.90;;;;;;5136183;27;20228;-63
2020/12/14 10:37:50;;;;;;;9.87;6.27;;;2.50;99.90;;;;;;5135982;27;20216;-62
2020/12/14 10:40:16;;;;;;;10.13;6.10;;;2.60;99.90;;;;;;5135454;27;20181;-61
2020/12/14 10:42:44;;;;;;;11.97;6.10;;;2.60;99.90;;;;;;5135885;27;20234;-63
2020/12/14 10:45:10;;;;;;;9.43;5.87;;;2.50;99.90;;;;;;5133378;27;20280;-63
2020/12/14 10:47:39;;;;;;;13.13;5.60;;;2.60;99.90;;;;;;5135742;27;20212;-64
2020/12/14 10:50:06;;;;;;;10.63;5.73;;;2.60;99.90;;;;;;5135312;27;20229;-65
2020/12/14 10:52:32;;;;;;;12.60;5.60;;;2.50;99.90;;;;;;5135128;27;20262;-63
2020/12/14 10:54:58;;;;;;;8.30;5.17;;;2.60;99.90;;;;;;5135223;27;20220;-64
2020/12/14 10:57:25;;;;;;;9.07;5.33;;;2.60;99.90;;;;;;5135431;27;20193;-63
2020/12/14 10:59:55;;;;;;;11.03;5.40;;;2.60;99.90;;;;;;5133130;27;20205;-63
2020/12/14 11:02:22;;;;;;;9.17;5.80;;;2.60;99.90;;;;;;5134603;27;20200;-64
2020/12/14 11:04:48;;;;;;;11.30;5.50;;;2.60;99.90;;;;;;5135376;27;20224;-62
2020/12/14 11:07:15;;;;;;;9.73;4.80;;;2.60;99.90;;;;;;5135442;27;20244;-64
2020/12/14 11:09:41;;;;;;;9.33;4.40;;;2.60;99.90;;;;;;5135722;27;20197;-64
2020/12/14 11:12:08;;;;;;;17.13;4.30;;;2.50;99.90;;;;;;5135830;27;20254;-67
2020/12/14 11:14:36;;;;;;;8.13;4.67;;;2.50;99.90;;;;;;5134275;27;20204;-62
2020/12/14 11:17:04;;;;;;;9.83;4.97;;;2.60;99.90;;;;;;5135082;27;20539;-64
2020/12/14 11:19:30;;;;;;;11.67;5.03;;;2.60;99.90;;;;;;5135022;27;20197;-64
2020/12/14 11:21:57;;;;;;;13.37;4.97;;;2.60;99.90;;;;;;5135076;27;20223;-65
2020/12/14 11:24:24;;;;;;;8.53;4.90;;;2.60;99.90;;;;;;5134631;27;20197;-64
2020/12/14 11:26:51;;;;;;;9.47;5.33;;;2.70;99.90;;;;;;5130436;27;20213;-64
2020/12/14 11:29:18;;;;;;;12.13;5.00;;;2.70;99.90;;;;;;5133487;27;20220;-63
2020/12/14 11:31:45;;;;;;;10.17;4.90;;;2.70;99.90;;;;;;5134647;27;20189;-63
2020/12/14 11:34:13;;;;;;;7.93;4.80;;;2.70;99.90;;;;;;5135179;27;20247;-65
2020/12/14 11:36:39;;;;;;;7.00;4.50;;;2.70;99.90;;;;;;5134617;27;20247;-64
2020/12/14 11:39:06;;;;;;;6.17;4.07;;;2.70;99.90;;;;;;5134701;27;20630;-64
2020/12/14 11:41:32;;;;;;;7.37;4.30;;;2.70;99.90;;;;;;5134554;27;20187;-65
2020/12/14 11:43:59;;;;;;;6.87;4.43;;;2.70;99.90;;;;;;5131978;27;20235;-64
2020/12/14 11:46:26;;;;;;;11.83;4.77;;;2.70;99.90;;;;;;5134196;27;20299;-63
2020/12/14 11:48:52;;;;;;;6.87;4.50;;;2.70;99.90;;;;;;5134042;27;20224;-64
2020/12/14 11:51:20;;;;;;;7.10;4.50;;;2.70;99.90;;;;;;5134588;27;20220;-65
2020/12/14 11:53:46;;;;;;;8.23;4.30;;;2.70;99.90;;;;;;5134636;27;20237;-64
2020/12/14 11:56:13;;;;;;;7.47;4.07;;;2.80;99.90;;;;;;5133606;27;20216;-66
2020/12/14 11:58:40;;;;;;;9.47;4.47;;;2.70;99.90;;;;;;5133421;27;20192;-63
2020/12/14 12:01:06;;;;;;;8.57;4.90;;;2.80;99.90;;;;;;5134029;27;20195;-67
2020/12/14 12:03:33;;;;;;;10.00;4.70;;;2.80;99.90;;;;;;5134530;27;20609;-64
2020/12/14 12:05:59;;;;;;;10.37;4.53;;;2.80;99.90;;;;;;5133868;27;20351;-67
2020/12/14 12:08:27;;;;;;;9.33;4.57;;;2.80;99.90;;;;;;5132472;27;20238;-63
2020/12/14 12:10:53;;;;;;;10.07;4.60;;;2.70;99.90;;;;;;5132925;27;20235;-65
2020/12/14 12:13:20;;;;;;;8.40;4.03;;;2.70;99.90;;;;;;5132930;27;20387;-63
2020/12/14 12:15:46;;;;;;;9.20;4.60;;;2.70;99.90;;;;;;5131924;27;20181;-67
2020/12/14 12:18:13;;;;;;;8.83;4.80;;;2.80;99.90;;;;;;5129626;27;20663;-67
2020/12/14 12:20:39;;;;;;;8.57;4.67;;;2.80;99.90;;;;;;5133153;27;20219;-65
2020/12/14 12:23:06;;;;;;;10.27;4.60;;;2.80;99.90;;;;;;5133408;27;20232;-64
2020/12/14 12:25:33;;;;;;;12.63;4.87;;;2.80;99.90;;;;;;5133812;27;20196;-65
2020/12/14 12:28:00;;;;;;;10.17;5.47;;;2.80;99.90;;;;;;5132788;27;20338;-67
2020/12/14 12:30:26;;;;;;;13.30;5.70;;;2.70;99.90;;;;;;5132786;27;20192;-67
2020/12/14 12:32:53;;;;;;;12.27;5.17;;;2.70;99.90;;;;;;5130917;27;20189;-63
2020/12/14 12:35:19;;;;;;;9.20;5.40;;;2.70;99.90;;;;;;5133972;27;20192;-66
2020/12/14 12:37:46;;;;;;;9.20;4.97;;;2.70;99.90;;;;;;5133497;27;20185;-65
2020/12/14 12:40:12;;;;;;;11.43;4.63;;;2.70;99.90;;;;;;5134113;27;20181;-64
2020/12/14 12:42:40;;;;;;;8.37;4.57;;;2.60;99.90;;;;;;5133808;27;20269;-67
2020/12/14 12:45:06;;;;;;;14.20;5.13;;;2.60;99.90;;;;;;5129930;27;20354;-64
2020/12/14 12:47:32;;;;;;;8.00;4.77;;;2.60;99.90;;;;;;5130370;27;20323;-67
2020/12/14 12:49:59;;;;;;;11.43;5.33;;;2.70;99.90;;;;;;5126734;27;20220;-64
2020/12/14 12:52:26;;;;;;;11.90;5.27;;;2.70;99.90;;;;;;5133062;27;20193;-63
2020/12/14 12:54:52;;;;;;;14.40;5.20;;;2.70;99.90;;;;;;5130905;27;20658;-64